sensor_id;sensor_type;location;lat;lon;timestamp;P1;durP1;ratioP1;P2;durP2;ratioP2
71435;SDS011;59251;51.326;12.370;2024-01-06T00:01:40;9.18;;;2.70;;
71435;SDS011;59251;51.326;12.370;2024-01-06T00:04:06;8.70;;;3.10;;
71435;SDS011;59251;51.326;12.370;2024-01-06T00:06:33;9.47;;;3.33;;
71435;SDS011;59251;51.326;12.370;2024-01-06T00:09:00;11.00;;;3.28;;
71435;SDS011;59251;51.326;12.370;2024-01-06T00:11:27;11.52;;;3.67;;
71435;SDS011;59251;51.326;12.370;2024-01-06T00:13:53;9.85;;;3.72;;
71435;SDS011;59251;51.326;12.370;2024-01-06T00:16:20;11.70;;;3.22;;
71435;SDS011;59251;51.326;12.370;2024-01-06T00:18:48;9.90;;;3.37;;
71435;SDS011;59251;51.326;12.370;2024-01-06T00:21:15;12.50;;;3.33;;
71435;SDS011;59251;51.326;12.370;2024-01-06T00:23:42;8.23;;;2.85;;
71435;SDS011;59251;51.326;12.370;2024-01-06T00:26:09;12.18;;;3.22;;
71435;SDS011;59251;51.326;12.370;2024-01-06T00:28:37;12.32;;;3.13;;
71435;SDS011;59251;51.326;12.370;2024-01-06T00:31:04;10.53;;;3.10;;
71435;SDS011;59251;51.326;12.370;2024-01-06T00:33:31;9.45;;;3.10;;
71435;SDS011;59251;51.326;12.370;2024-01-06T00:35:59;10.25;;;3.30;;
71435;SDS011;59251;51.326;12.370;2024-01-06T00:38:26;11.07;;;3.53;;
71435;SDS011;59251;51.326;12.370;2024-01-06T00:40:52;11.32;;;3.63;;
71435;SDS011;59251;51.326;12.370;2024-01-06T00:43:19;12.17;;;3.50;;
71435;SDS011;59251;51.326;12.370;2024-01-06T00:45:46;10.15;;;3.55;;
71435;SDS011;59251;51.326;12.370;2024-01-06T00:48:13;9.82;;;3.88;;
71435;SDS011;59251;51.326;12.370;2024-01-06T00:50:40;12.02;;;3.95;;
71435;SDS011;59251;51.326;12.370;2024-01-06T00:53:08;12.57;;;3.70;;
71435;SDS011;59251;51.326;12.370;2024-01-06T00:55:34;11.73;;;4.00;;
71435;SDS011;59251;51.326;12.370;2024-01-06T00:58:01;12.85;;;3.80;;
71435;SDS011;59251;51.326;12.370;2024-01-06T01:00:28;11.63;;;3.85;;
71435;SDS011;59251;51.326;12.370;2024-01-06T01:02:55;10.07;;;3.42;;
71435;SDS011;59251;51.326;12.370;2024-01-06T01:05:22;13.68;;;3.92;;
71435;SDS011;59251;51.326;12.370;2024-01-06T01:07:48;12.73;;;3.90;;
71435;SDS011;59251;51.326;12.370;2024-01-06T01:10:16;10.35;;;3.92;;
71435;SDS011;59251;51.326;12.370;2024-01-06T01:12:43;12.25;;;4.07;;
71435;SDS011;59251;51.326;12.370;2024-01-06T01:15:10;13.07;;;3.95;;
71435;SDS011;59251;51.326;12.370;2024-01-06T01:17:37;12.10;;;3.80;;
71435;SDS011;59251;51.326;12.370;2024-01-06T01:20:04;10.80;;;3.93;;
71435;SDS011;59251;51.326;12.370;2024-01-06T01:22:31;10.32;;;3.92;;
71435;SDS011;59251;51.326;12.370;2024-01-06T01:24:58;12.45;;;3.70;;
71435;SDS011;59251;51.326;12.370;2024-01-06T01:27:31;13.13;;;3.97;;
71435;SDS011;59251;51.326;12.370;2024-01-06T01:29:58;10.85;;;4.15;;
71435;SDS011;59251;51.326;12.370;2024-01-06T01:32:25;11.17;;;3.83;;
71435;SDS011;59251;51.326;12.370;2024-01-06T01:34:51;9.82;;;3.70;;
71435;SDS011;59251;51.326;12.370;2024-01-06T01:37:18;9.20;;;3.28;;
71435;SDS011;59251;51.326;12.370;2024-01-06T01:39:45;11.93;;;3.42;;
71435;SDS011;59251;51.326;12.370;2024-01-06T01:42:12;14.77;;;3.90;;
71435;SDS011;59251;51.326;12.370;2024-01-06T01:44:40;10.33;;;3.53;;
71435;SDS011;59251;51.326;12.370;2024-01-06T01:47:06;10.88;;;3.35;;
71435;SDS011;59251;51.326;12.370;2024-01-06T01:49:33;11.80;;;3.63;;
71435;SDS011;59251;51.326;12.370;2024-01-06T01:52:00;13.60;;;3.72;;
71435;SDS011;59251;51.326;12.370;2024-01-06T01:54:27;10.70;;;3.38;;
71435;SDS011;59251;51.326;12.370;2024-01-06T01:56:53;10.60;;;3.53;;
71435;SDS011;59251;51.326;12.370;2024-01-06T01:59:20;10.30;;;3.60;;
71435;SDS011;59251;51.326;12.370;2024-01-06T02:01:48;11.38;;;3.75;;
71435;SDS011;59251;51.326;12.370;2024-01-06T02:04:15;10.45;;;3.67;;
71435;SDS011;59251;51.326;12.370;2024-01-06T02:06:42;10.10;;;3.38;;
71435;SDS011;59251;51.326;12.370;2024-01-06T02:09:10;9.73;;;3.50;;
71435;SDS011;59251;51.326;12.370;2024-01-06T02:11:37;13.70;;;4.28;;
71435;SDS011;59251;51.326;12.370;2024-01-06T02:14:04;14.60;;;4.70;;
71435;SDS011;59251;51.326;12.370;2024-01-06T02:16:30;12.00;;;4.38;;
71435;SDS011;59251;51.326;12.370;2024-01-06T02:18:58;11.32;;;4.03;;
71435;SDS011;59251;51.326;12.370;2024-01-06T02:21:25;10.00;;;4.30;;
71435;SDS011;59251;51.326;12.370;2024-01-06T02:23:55;12.57;;;3.90;;
71435;SDS011;59251;51.326;12.370;2024-01-06T02:26:22;11.90;;;3.85;;
71435;SDS011;59251;51.326;12.370;2024-01-06T02:28:48;11.73;;;3.40;;
71435;SDS011;59251;51.326;12.370;2024-01-06T02:31:15;11.15;;;3.60;;
71435;SDS011;59251;51.326;12.370;2024-01-06T02:33:42;11.57;;;3.30;;
71435;SDS011;59251;51.326;12.370;2024-01-06T02:36:09;11.43;;;3.70;;
71435;SDS011;59251;51.326;12.370;2024-01-06T02:38:35;12.95;;;3.97;;
71435;SDS011;59251;51.326;12.370;2024-01-06T02:41:03;13.68;;;4.53;;
71435;SDS011;59251;51.326;12.370;2024-01-06T02:43:30;15.20;;;5.40;;
71435;SDS011;59251;51.326;12.370;2024-01-06T02:45:57;13.00;;;4.57;;
71435;SDS011;59251;51.326;12.370;2024-01-06T02:48:23;11.60;;;4.55;;
71435;SDS011;59251;51.326;12.370;2024-01-06T02:50:50;11.00;;;3.90;;
71435;SDS011;59251;51.326;12.370;2024-01-06T02:53:17;12.25;;;3.95;;
71435;SDS011;59251;51.326;12.370;2024-01-06T02:55:43;10.32;;;3.60;;
71435;SDS011;59251;51.326;12.370;2024-01-06T02:58:11;10.47;;;2.83;;
71435;SDS011;59251;51.326;12.370;2024-01-06T03:00:38;10.15;;;3.35;;
71435;SDS011;59251;51.326;12.370;2024-01-06T03:03:05;10.85;;;2.95;;
71435;SDS011;59251;51.326;12.370;2024-01-06T03:05:32;9.98;;;2.88;;
71435;SDS011;59251;51.326;12.370;2024-01-06T03:07:58;10.05;;;2.97;;
71435;SDS011;59251;51.326;12.370;2024-01-06T03:10:25;10.47;;;3.20;;
71435;SDS011;59251;51.326;12.370;2024-01-06T03:12:52;9.23;;;2.78;;
71435;SDS011;59251;51.326;12.370;2024-01-06T03:15:20;12.45;;;3.33;;
71435;SDS011;59251;51.326;12.370;2024-01-06T03:17:47;10.35;;;3.25;;
71435;SDS011;59251;51.326;12.370;2024-01-06T03:20:14;11.75;;;3.00;;
71435;SDS011;59251;51.326;12.370;2024-01-06T03:22:40;9.80;;;3.30;;
71435;SDS011;59251;51.326;12.370;2024-01-06T03:25:08;9.27;;;3.50;;
71435;SDS011;59251;51.326;12.370;2024-01-06T03:27:34;9.60;;;3.13;;
71435;SDS011;59251;51.326;12.370;2024-01-06T03:30:01;9.93;;;3.67;;
71435;SDS011;59251;51.326;12.370;2024-01-06T03:32:30;10.75;;;2.88;;
71435;SDS011;59251;51.326;12.370;2024-01-06T03:34:56;10.53;;;3.43;;
71435;SDS011;59251;51.326;12.370;2024-01-06T03:37:23;9.68;;;3.25;;
71435;SDS011;59251;51.326;12.370;2024-01-06T03:39:50;8.82;;;3.00;;
71435;SDS011;59251;51.326;12.370;2024-01-06T03:42:17;10.00;;;2.97;;
71435;SDS011;59251;51.326;12.370;2024-01-06T03:44:43;11.43;;;3.40;;
71435;SDS011;59251;51.326;12.370;2024-01-06T03:47:10;10.40;;;3.57;;
71435;SDS011;59251;51.326;12.370;2024-01-06T03:49:38;10.95;;;3.15;;
71435;SDS011;59251;51.326;12.370;2024-01-06T03:52:05;9.75;;;3.38;;
71435;SDS011;59251;51.326;12.370;2024-01-06T03:54:32;10.52;;;3.53;;
71435;SDS011;59251;51.326;12.370;2024-01-06T03:56:58;9.68;;;3.10;;
71435;SDS011;59251;51.326;12.370;2024-01-06T03:59:25;9.80;;;3.17;;
71435;SDS011;59251;51.326;12.370;2024-01-06T04:01:52;10.98;;;3.42;;
71435;SDS011;59251;51.326;12.370;2024-01-06T04:04:19;11.00;;;3.40;;
71435;SDS011;59251;51.326;12.370;2024-01-06T04:06:47;11.68;;;3.38;;
71435;SDS011;59251;51.326;12.370;2024-01-06T04:09:14;13.15;;;4.22;;
71435;SDS011;59251;51.326;12.370;2024-01-06T04:11:41;13.67;;;4.23;;
71435;SDS011;59251;51.326;12.370;2024-01-06T04:14:07;13.15;;;3.92;;
71435;SDS011;59251;51.326;12.370;2024-01-06T04:16:34;9.05;;;3.75;;
71435;SDS011;59251;51.326;12.370;2024-01-06T04:19:01;12.13;;;4.07;;
71435;SDS011;59251;51.326;12.370;2024-01-06T04:21:28;12.30;;;3.63;;
71435;SDS011;59251;51.326;12.370;2024-01-06T04:23:56;8.53;;;3.60;;
71435;SDS011;59251;51.326;12.370;2024-01-06T04:26:22;11.88;;;4.20;;
71435;SDS011;59251;51.326;12.370;2024-01-06T04:28:49;9.07;;;3.33;;
71435;SDS011;59251;51.326;12.370;2024-01-06T04:31:15;11.75;;;3.97;;
71435;SDS011;59251;51.326;12.370;2024-01-06T04:33:42;11.23;;;4.10;;
71435;SDS011;59251;51.326;12.370;2024-01-06T04:36:09;13.00;;;3.87;;
71435;SDS011;59251;51.326;12.370;2024-01-06T04:38:35;10.20;;;3.72;;
71435;SDS011;59251;51.326;12.370;2024-01-06T04:41:04;12.05;;;3.95;;
71435;SDS011;59251;51.326;12.370;2024-01-06T04:43:30;9.02;;;3.60;;
71435;SDS011;59251;51.326;12.370;2024-01-06T04:45:57;13.82;;;4.22;;
71435;SDS011;59251;51.326;12.370;2024-01-06T04:48:24;10.20;;;3.63;;
71435;SDS011;59251;51.326;12.370;2024-01-06T04:50:50;9.05;;;3.55;;
71435;SDS011;59251;51.326;12.370;2024-01-06T04:53:17;10.38;;;3.70;;
71435;SDS011;59251;51.326;12.370;2024-01-06T04:55:44;10.70;;;4.53;;
71435;SDS011;59251;51.326;12.370;2024-01-06T04:58:12;9.73;;;4.25;;
71435;SDS011;59251;51.326;12.370;2024-01-06T05:00:38;11.20;;;4.53;;
71435;SDS011;59251;51.326;12.370;2024-01-06T05:03:05;11.80;;;4.10;;
71435;SDS011;59251;51.326;12.370;2024-01-06T05:05:32;10.95;;;4.45;;
71435;SDS011;59251;51.326;12.370;2024-01-06T05:07:58;10.55;;;4.13;;
71435;SDS011;59251;51.326;12.370;2024-01-06T05:10:25;10.20;;;4.30;;
71435;SDS011;59251;51.326;12.370;2024-01-06T05:12:52;12.97;;;4.70;;
71435;SDS011;59251;51.326;12.370;2024-01-06T05:15:20;12.65;;;4.03;;
71435;SDS011;59251;51.326;12.370;2024-01-06T05:17:47;12.73;;;4.47;;
71435;SDS011;59251;51.326;12.370;2024-01-06T05:20:13;12.65;;;4.00;;
71435;SDS011;59251;51.326;12.370;2024-01-06T05:22:40;10.45;;;3.95;;
71435;SDS011;59251;51.326;12.370;2024-01-06T05:25:07;10.40;;;4.17;;
71435;SDS011;59251;51.326;12.370;2024-01-06T05:27:35;10.35;;;4.18;;
71435;SDS011;59251;51.326;12.370;2024-01-06T05:30:01;11.70;;;4.28;;
71435;SDS011;59251;51.326;12.370;2024-01-06T05:32:29;12.52;;;4.20;;
71435;SDS011;59251;51.326;12.370;2024-01-06T05:34:56;10.38;;;3.60;;
71435;SDS011;59251;51.326;12.370;2024-01-06T05:37:23;12.00;;;4.27;;
71435;SDS011;59251;51.326;12.370;2024-01-06T05:39:49;11.88;;;4.20;;
71435;SDS011;59251;51.326;12.370;2024-01-06T05:42:17;9.95;;;4.60;;
71435;SDS011;59251;51.326;12.370;2024-01-06T05:44:43;15.48;;;4.68;;
71435;SDS011;59251;51.326;12.370;2024-01-06T05:47:10;13.65;;;4.78;;
71435;SDS011;59251;51.326;12.370;2024-01-06T05:49:42;14.53;;;5.10;;
71435;SDS011;59251;51.326;12.370;2024-01-06T05:52:09;10.77;;;4.32;;
71435;SDS011;59251;51.326;12.370;2024-01-06T05:54:36;12.57;;;5.00;;
71435;SDS011;59251;51.326;12.370;2024-01-06T05:57:06;13.15;;;4.88;;
71435;SDS011;59251;51.326;12.370;2024-01-06T05:59:32;12.27;;;4.63;;
71435;SDS011;59251;51.326;12.370;2024-01-06T06:01:59;12.27;;;5.13;;
71435;SDS011;59251;51.326;12.370;2024-01-06T06:04:26;13.82;;;4.97;;
71435;SDS011;59251;51.326;12.370;2024-01-06T06:06:54;13.60;;;4.65;;
71435;SDS011;59251;51.326;12.370;2024-01-06T06:09:21;13.18;;;4.45;;
71435;SDS011;59251;51.326;12.370;2024-01-06T06:11:47;12.40;;;4.80;;
71435;SDS011;59251;51.326;12.370;2024-01-06T06:14:14;14.30;;;5.17;;
71435;SDS011;59251;51.326;12.370;2024-01-06T06:16:41;14.48;;;5.05;;
71435;SDS011;59251;51.326;12.370;2024-01-06T06:19:07;13.05;;;5.50;;
71435;SDS011;59251;51.326;12.370;2024-01-06T06:21:34;13.65;;;5.03;;
71435;SDS011;59251;51.326;12.370;2024-01-06T06:24:02;12.77;;;4.90;;
71435;SDS011;59251;51.326;12.370;2024-01-06T06:26:30;14.37;;;4.90;;
71435;SDS011;59251;51.326;12.370;2024-01-06T06:28:57;14.02;;;5.10;;
71435;SDS011;59251;51.326;12.370;2024-01-06T06:31:24;12.07;;;5.55;;
71435;SDS011;59251;51.326;12.370;2024-01-06T06:33:51;16.35;;;5.68;;
71435;SDS011;59251;51.326;12.370;2024-01-06T06:36:17;15.07;;;5.32;;
71435;SDS011;59251;51.326;12.370;2024-01-06T06:38:45;13.87;;;5.20;;
71435;SDS011;59251;51.326;12.370;2024-01-06T06:41:13;11.38;;;4.90;;
71435;SDS011;59251;51.326;12.370;2024-01-06T06:43:40;17.23;;;5.57;;
71435;SDS011;59251;51.326;12.370;2024-01-06T06:46:06;11.05;;;5.35;;
71435;SDS011;59251;51.326;12.370;2024-01-06T06:48:34;11.55;;;5.10;;
71435;SDS011;59251;51.326;12.370;2024-01-06T06:51:01;15.57;;;5.27;;
71435;SDS011;59251;51.326;12.370;2024-01-06T06:53:28;12.23;;;5.13;;
71435;SDS011;59251;51.326;12.370;2024-01-06T06:55:55;14.23;;;5.07;;
71435;SDS011;59251;51.326;12.370;2024-01-06T06:58:23;14.07;;;4.63;;
71435;SDS011;59251;51.326;12.370;2024-01-06T07:00:50;12.27;;;5.00;;
71435;SDS011;59251;51.326;12.370;2024-01-06T07:03:16;11.10;;;4.87;;
71435;SDS011;59251;51.326;12.370;2024-01-06T07:05:43;12.90;;;4.65;;
71435;SDS011;59251;51.326;12.370;2024-01-06T07:08:10;14.90;;;5.00;;
71435;SDS011;59251;51.326;12.370;2024-01-06T07:10:38;15.45;;;4.70;;
71435;SDS011;59251;51.326;12.370;2024-01-06T07:13:05;11.98;;;4.70;;
71435;SDS011;59251;51.326;12.370;2024-01-06T07:15:33;13.70;;;4.60;;
71435;SDS011;59251;51.326;12.370;2024-01-06T07:18:00;12.95;;;5.00;;
71435;SDS011;59251;51.326;12.370;2024-01-06T07:20:27;14.90;;;4.70;;
71435;SDS011;59251;51.326;12.370;2024-01-06T07:22:53;13.93;;;5.07;;
71435;SDS011;59251;51.326;12.370;2024-01-06T07:25:20;12.55;;;5.40;;
71435;SDS011;59251;51.326;12.370;2024-01-06T07:27:47;18.50;;;5.73;;
71435;SDS011;59251;51.326;12.370;2024-01-06T07:30:14;15.25;;;5.15;;
71435;SDS011;59251;51.326;12.370;2024-01-06T07:32:42;11.88;;;5.10;;
71435;SDS011;59251;51.326;12.370;2024-01-06T07:35:09;13.23;;;5.18;;
71435;SDS011;59251;51.326;12.370;2024-01-06T07:37:36;14.50;;;5.30;;
71435;SDS011;59251;51.326;12.370;2024-01-06T07:40:03;18.87;;;5.83;;
71435;SDS011;59251;51.326;12.370;2024-01-06T07:42:30;13.82;;;5.10;;
71435;SDS011;59251;51.326;12.370;2024-01-06T07:44:57;16.92;;;6.53;;
71435;SDS011;59251;51.326;12.370;2024-01-06T07:47:24;17.88;;;7.18;;
71435;SDS011;59251;51.326;12.370;2024-01-06T07:49:52;24.25;;;7.95;;
71435;SDS011;59251;51.326;12.370;2024-01-06T07:52:19;18.90;;;7.40;;
71435;SDS011;59251;51.326;12.370;2024-01-06T07:54:46;16.23;;;7.70;;
71435;SDS011;59251;51.326;12.370;2024-01-06T07:57:13;13.63;;;6.88;;
71435;SDS011;59251;51.326;12.370;2024-01-06T07:59:40;19.25;;;8.40;;
71435;SDS011;59251;51.326;12.370;2024-01-06T08:02:07;20.83;;;8.98;;
71435;SDS011;59251;51.326;12.370;2024-01-06T08:04:34;18.93;;;8.60;;
71435;SDS011;59251;51.326;12.370;2024-01-06T08:07:03;16.95;;;7.53;;
71435;SDS011;59251;51.326;12.370;2024-01-06T08:09:30;18.15;;;8.35;;
71435;SDS011;59251;51.326;12.370;2024-01-06T08:11:56;21.30;;;7.90;;
71435;SDS011;59251;51.326;12.370;2024-01-06T08:14:23;17.42;;;7.78;;
71435;SDS011;59251;51.326;12.370;2024-01-06T08:16:50;16.57;;;7.23;;
71435;SDS011;59251;51.326;12.370;2024-01-06T08:19:16;16.30;;;6.88;;
71435;SDS011;59251;51.326;12.370;2024-01-06T08:21:43;15.98;;;6.50;;
71435;SDS011;59251;51.326;12.370;2024-01-06T08:24:11;13.25;;;6.40;;
71435;SDS011;59251;51.326;12.370;2024-01-06T08:26:38;14.82;;;5.88;;
71435;SDS011;59251;51.326;12.370;2024-01-06T08:29:05;15.50;;;6.13;;
71435;SDS011;59251;51.326;12.370;2024-01-06T08:31:31;13.93;;;5.53;;
71435;SDS011;59251;51.326;12.370;2024-01-06T08:33:58;13.75;;;5.82;;
71435;SDS011;59251;51.326;12.370;2024-01-06T08:36:25;11.80;;;5.47;;
71435;SDS011;59251;51.326;12.370;2024-01-06T08:38:51;14.40;;;5.45;;
71435;SDS011;59251;51.326;12.370;2024-01-06T08:41:20;12.03;;;5.07;;
71435;SDS011;59251;51.326;12.370;2024-01-06T08:43:46;16.50;;;5.85;;
71435;SDS011;59251;51.326;12.370;2024-01-06T08:46:13;13.88;;;6.22;;
71435;SDS011;59251;51.326;12.370;2024-01-06T08:48:40;13.25;;;5.90;;
71435;SDS011;59251;51.326;12.370;2024-01-06T08:51:07;12.23;;;5.95;;
71435;SDS011;59251;51.326;12.370;2024-01-06T08:53:33;17.93;;;6.00;;
71435;SDS011;59251;51.326;12.370;2024-01-06T08:56:00;14.95;;;5.78;;
71435;SDS011;59251;51.326;12.370;2024-01-06T08:58:28;11.95;;;5.05;;
71435;SDS011;59251;51.326;12.370;2024-01-06T09:00:55;13.20;;;5.75;;
71435;SDS011;59251;51.326;12.370;2024-01-06T09:03:22;14.95;;;5.85;;
71435;SDS011;59251;51.326;12.370;2024-01-06T09:05:51;13.37;;;5.40;;
71435;SDS011;59251;51.326;12.370;2024-01-06T09:08:18;12.70;;;6.00;;
71435;SDS011;59251;51.326;12.370;2024-01-06T09:10:45;14.13;;;5.70;;
71435;SDS011;59251;51.326;12.370;2024-01-06T09:13:12;12.48;;;4.70;;
71435;SDS011;59251;51.326;12.370;2024-01-06T09:15:40;13.30;;;5.20;;
71435;SDS011;59251;51.326;12.370;2024-01-06T09:18:07;13.17;;;5.67;;
71435;SDS011;59251;51.326;12.370;2024-01-06T09:20:34;13.88;;;5.57;;
71435;SDS011;59251;51.326;12.370;2024-01-06T09:23:01;14.55;;;5.53;;
71435;SDS011;59251;51.326;12.370;2024-01-06T09:25:27;19.33;;;5.88;;
71435;SDS011;59251;51.326;12.370;2024-01-06T09:27:54;15.98;;;6.80;;
71435;SDS011;59251;51.326;12.370;2024-01-06T09:30:21;17.53;;;7.20;;
71435;SDS011;59251;51.326;12.370;2024-01-06T09:32:49;15.20;;;5.55;;
71435;SDS011;59251;51.326;12.370;2024-01-06T09:35:16;13.95;;;5.97;;
71435;SDS011;59251;51.326;12.370;2024-01-06T09:37:42;13.85;;;6.05;;
71435;SDS011;59251;51.326;12.370;2024-01-06T09:40:11;14.82;;;6.38;;
71435;SDS011;59251;51.326;12.370;2024-01-06T09:42:39;16.90;;;6.17;;
71435;SDS011;59251;51.326;12.370;2024-01-06T09:45:06;12.77;;;5.43;;
71435;SDS011;59251;51.326;12.370;2024-01-06T09:47:34;16.35;;;5.82;;
71435;SDS011;59251;51.326;12.370;2024-01-06T09:50:03;12.85;;;5.35;;
71435;SDS011;59251;51.326;12.370;2024-01-06T09:52:34;16.10;;;5.90;;
71435;SDS011;59251;51.326;12.370;2024-01-06T09:55:06;14.90;;;6.20;;
71435;SDS011;59251;51.326;12.370;2024-01-06T09:57:36;14.27;;;5.50;;
71435;SDS011;59251;51.326;12.370;2024-01-06T10:00:03;13.98;;;5.50;;
71435;SDS011;59251;51.326;12.370;2024-01-06T10:02:37;13.60;;;5.43;;
71435;SDS011;59251;51.326;12.370;2024-01-06T10:05:05;17.10;;;4.97;;
71435;SDS011;59251;51.326;12.370;2024-01-06T10:07:32;15.13;;;5.53;;
71435;SDS011;59251;51.326;12.370;2024-01-06T10:09:59;17.00;;;5.80;;
71435;SDS011;59251;51.326;12.370;2024-01-06T10:12:26;15.65;;;5.70;;
71435;SDS011;59251;51.326;12.370;2024-01-06T10:14:53;14.02;;;5.68;;
71435;SDS011;59251;51.326;12.370;2024-01-06T10:17:20;16.17;;;5.28;;
71435;SDS011;59251;51.326;12.370;2024-01-06T10:19:47;11.50;;;5.13;;
71435;SDS011;59251;51.326;12.370;2024-01-06T10:22:16;13.93;;;5.10;;
71435;SDS011;59251;51.326;12.370;2024-01-06T10:24:43;17.27;;;6.68;;
71435;SDS011;59251;51.326;12.370;2024-01-06T10:27:10;18.00;;;6.50;;
71435;SDS011;59251;51.326;12.370;2024-01-06T10:29:37;16.90;;;6.97;;
71435;SDS011;59251;51.326;12.370;2024-01-06T10:32:03;16.00;;;7.07;;
71435;SDS011;59251;51.326;12.370;2024-01-06T10:34:31;16.05;;;6.65;;
71435;SDS011;59251;51.326;12.370;2024-01-06T10:36:58;16.10;;;7.07;;
71435;SDS011;59251;51.326;12.370;2024-01-06T10:39:26;17.15;;;6.75;;
71435;SDS011;59251;51.326;12.370;2024-01-06T10:41:54;16.58;;;7.60;;
71435;SDS011;59251;51.326;12.370;2024-01-06T10:44:23;18.40;;;7.77;;
71435;SDS011;59251;51.326;12.370;2024-01-06T10:46:50;20.05;;;7.90;;
71435;SDS011;59251;51.326;12.370;2024-01-06T10:49:19;15.63;;;6.75;;
71435;SDS011;59251;51.326;12.370;2024-01-06T10:51:47;17.90;;;7.03;;
71435;SDS011;59251;51.326;12.370;2024-01-06T10:54:15;17.83;;;8.93;;
71435;SDS011;59251;51.326;12.370;2024-01-06T10:56:43;17.33;;;7.93;;
71435;SDS011;59251;51.326;12.370;2024-01-06T10:59:12;15.10;;;7.03;;
71435;SDS011;59251;51.326;12.370;2024-01-06T11:01:40;14.10;;;6.95;;
71435;SDS011;59251;51.326;12.370;2024-01-06T11:04:07;18.10;;;7.15;;
71435;SDS011;59251;51.326;12.370;2024-01-06T11:06:35;15.27;;;6.88;;
71435;SDS011;59251;51.326;12.370;2024-01-06T11:09:04;15.77;;;6.83;;
71435;SDS011;59251;51.326;12.370;2024-01-06T11:11:36;13.57;;;6.28;;
71435;SDS011;59251;51.326;12.370;2024-01-06T11:14:18;13.25;;;6.10;;
71435;SDS011;59251;51.326;12.370;2024-01-06T11:16:46;13.75;;;5.75;;
71435;SDS011;59251;51.326;12.370;2024-01-06T11:22:24;13.13;;;5.53;;
71435;SDS011;59251;51.326;12.370;2024-01-06T11:24:53;13.90;;;5.82;;
71435;SDS011;59251;51.326;12.370;2024-01-06T11:27:22;12.43;;;5.63;;
71435;SDS011;59251;51.326;12.370;2024-01-06T11:29:53;15.07;;;5.55;;
71435;SDS011;59251;51.326;12.370;2024-01-06T11:32:20;15.05;;;5.63;;
71435;SDS011;59251;51.326;12.370;2024-01-06T11:34:52;14.57;;;6.10;;
71435;SDS011;59251;51.326;12.370;2024-01-06T11:37:25;13.27;;;5.90;;
71435;SDS011;59251;51.326;12.370;2024-01-06T11:40:01;13.75;;;5.93;;
71435;SDS011;59251;51.326;12.370;2024-01-06T11:42:31;14.82;;;5.55;;
71435;SDS011;59251;51.326;12.370;2024-01-06T11:45:02;11.20;;;5.40;;
71435;SDS011;59251;51.326;12.370;2024-01-06T11:47:30;13.47;;;5.23;;
71435;SDS011;59251;51.326;12.370;2024-01-06T11:49:58;14.77;;;6.32;;
71435;SDS011;59251;51.326;12.370;2024-01-06T11:52:28;14.65;;;6.30;;
71435;SDS011;59251;51.326;12.370;2024-01-06T11:54:55;14.25;;;6.13;;
71435;SDS011;59251;51.326;12.370;2024-01-06T11:57:24;12.27;;;5.70;;
71435;SDS011;59251;51.326;12.370;2024-01-06T11:59:51;15.50;;;5.33;;
71435;SDS011;59251;51.326;12.370;2024-01-06T12:02:19;13.18;;;6.18;;
71435;SDS011;59251;51.326;12.370;2024-01-06T12:04:48;16.77;;;5.82;;
71435;SDS011;59251;51.326;12.370;2024-01-06T12:07:16;13.43;;;5.93;;
71435;SDS011;59251;51.326;12.370;2024-01-06T12:09:42;13.15;;;6.13;;
71435;SDS011;59251;51.326;12.370;2024-01-06T12:12:09;14.73;;;5.83;;
71435;SDS011;59251;51.326;12.370;2024-01-06T12:14:39;14.25;;;6.35;;
71435;SDS011;59251;51.326;12.370;2024-01-06T12:17:07;15.38;;;6.13;;
71435;SDS011;59251;51.326;12.370;2024-01-06T12:19:35;16.73;;;6.65;;
71435;SDS011;59251;51.326;12.370;2024-01-06T12:22:03;13.90;;;6.38;;
71435;SDS011;59251;51.326;12.370;2024-01-06T12:24:29;12.70;;;6.50;;
71435;SDS011;59251;51.326;12.370;2024-01-06T12:26:57;17.52;;;7.53;;
71435;SDS011;59251;51.326;12.370;2024-01-06T12:29:26;16.20;;;7.93;;
71435;SDS011;59251;51.326;12.370;2024-01-06T12:31:54;16.63;;;7.05;;
71435;SDS011;59251;51.326;12.370;2024-01-06T12:34:21;17.58;;;7.20;;
71435;SDS011;59251;51.326;12.370;2024-01-06T12:36:51;17.33;;;7.70;;
71435;SDS011;59251;51.326;12.370;2024-01-06T12:39:19;15.48;;;7.05;;
71435;SDS011;59251;51.326;12.370;2024-01-06T12:41:46;18.30;;;7.55;;
71435;SDS011;59251;51.326;12.370;2024-01-06T12:44:12;17.33;;;7.03;;
71435;SDS011;59251;51.326;12.370;2024-01-06T12:46:39;14.27;;;7.00;;
71435;SDS011;59251;51.326;12.370;2024-01-06T12:49:06;17.17;;;7.87;;
71435;SDS011;59251;51.326;12.370;2024-01-06T12:51:33;17.98;;;8.50;;
71435;SDS011;59251;51.326;12.370;2024-01-06T12:54:01;18.58;;;9.30;;
71435;SDS011;59251;51.326;12.370;2024-01-06T12:56:28;20.08;;;9.02;;
71435;SDS011;59251;51.326;12.370;2024-01-06T12:58:54;23.67;;;10.07;;
71435;SDS011;59251;51.326;12.370;2024-01-06T13:01:22;22.10;;;9.00;;
71435;SDS011;59251;51.326;12.370;2024-01-06T13:03:48;18.92;;;9.23;;
71435;SDS011;59251;51.326;12.370;2024-01-06T13:06:16;23.15;;;11.18;;
71435;SDS011;59251;51.326;12.370;2024-01-06T13:08:44;23.35;;;10.18;;
71435;SDS011;59251;51.326;12.370;2024-01-06T13:11:12;23.33;;;9.60;;
71435;SDS011;59251;51.326;12.370;2024-01-06T13:13:39;28.83;;;13.10;;
71435;SDS011;59251;51.326;12.370;2024-01-06T13:16:06;26.67;;;10.65;;
71435;SDS011;59251;51.326;12.370;2024-01-06T13:18:33;25.70;;;11.65;;
71435;SDS011;59251;51.326;12.370;2024-01-06T13:21:00;33.35;;;13.60;;
71435;SDS011;59251;51.326;12.370;2024-01-06T13:23:27;27.95;;;11.82;;
71435;SDS011;59251;51.326;12.370;2024-01-06T13:25:54;29.70;;;12.17;;
71435;SDS011;59251;51.326;12.370;2024-01-06T13:28:24;28.73;;;11.18;;
71435;SDS011;59251;51.326;12.370;2024-01-06T13:30:50;32.88;;;13.45;;
71435;SDS011;59251;51.326;12.370;2024-01-06T13:33:18;29.23;;;12.43;;
71435;SDS011;59251;51.326;12.370;2024-01-06T13:35:46;30.25;;;11.98;;
71435;SDS011;59251;51.326;12.370;2024-01-06T13:38:12;29.53;;;11.73;;
71435;SDS011;59251;51.326;12.370;2024-01-06T13:40:39;32.33;;;11.63;;
71435;SDS011;59251;51.326;12.370;2024-01-06T13:43:06;35.08;;;12.23;;
71435;SDS011;59251;51.326;12.370;2024-01-06T13:45:35;35.53;;;14.60;;
71435;SDS011;59251;51.326;12.370;2024-01-06T13:48:02;29.77;;;12.57;;
71435;SDS011;59251;51.326;12.370;2024-01-06T13:50:29;36.03;;;13.37;;
71435;SDS011;59251;51.326;12.370;2024-01-06T13:52:56;37.75;;;14.40;;
71435;SDS011;59251;51.326;12.370;2024-01-06T13:55:23;41.00;;;14.65;;
71435;SDS011;59251;51.326;12.370;2024-01-06T13:57:50;37.97;;;13.27;;
71435;SDS011;59251;51.326;12.370;2024-01-06T14:00:17;44.17;;;15.60;;
71435;SDS011;59251;51.326;12.370;2024-01-06T14:02:46;39.00;;;15.03;;
71435;SDS011;59251;51.326;12.370;2024-01-06T14:05:13;38.17;;;15.70;;
71435;SDS011;59251;51.326;12.370;2024-01-06T14:07:41;48.15;;;16.02;;
71435;SDS011;59251;51.326;12.370;2024-01-06T14:10:10;47.55;;;15.93;;
71435;SDS011;59251;51.326;12.370;2024-01-06T14:12:37;48.47;;;15.20;;
71435;SDS011;59251;51.326;12.370;2024-01-06T14:15:06;46.30;;;15.83;;
71435;SDS011;59251;51.326;12.370;2024-01-06T14:17:33;49.80;;;17.27;;
71435;SDS011;59251;51.326;12.370;2024-01-06T14:20:02;44.15;;;16.58;;
71435;SDS011;59251;51.326;12.370;2024-01-06T14:22:29;43.65;;;14.68;;
71435;SDS011;59251;51.326;12.370;2024-01-06T14:24:57;46.08;;;14.85;;